Time;durP1;ratioP1;P1;durP2;ratioP2;P2;SDS_P1;SDS_P2;PMS_P1;PMS_P2;Temp;Humidity;BMP_temperature;BMP_pressure;BME280_temperature;BME280_humidity;BME280_pressure;Samples;Min_cycle;Max_cycle;Signal;HPM_P1;HPM_P2
2022/04/27 00:00:34;;;;;;;1.90;1.60;;;;;;;;;;5078404;28;20406;-89
2022/04/27 00:03:00;;;;;;;1.63;1.50;;;;;;;;;;5078104;28;20342;-89
2022/04/27 00:05:27;;;;;;;1.60;1.40;;;;;;;;;;5076979;28;20054;-89
2022/04/27 00:07:53;;;;;;;1.45;1.20;;;;;;;;;;5078432;28;20047;-89
2022/04/27 00:10:19;;;;;;;1.80;1.20;;;;;;;;;;5078433;28;20032;-89
2022/04/27 00:12:45;;;;;;;2.08;1.10;;;;;;;;;;5078149;28;20027;-90
2022/04/27 00:15:12;;;;;;;2.92;1.08;;;;;;;;;;5078056;28;20038;-89
2022/04/27 00:17:38;;;;;;;2.08;1.20;;;;;;;;;;5077091;28;20056;-90
2022/04/27 00:20:05;;;;;;;1.15;1.00;;;;;;;;;;5078304;28;20016;-89
2022/04/27 00:22:31;;;;;;;1.90;1.00;;;;;;;;;;5078283;28;20021;-89
2022/04/27 00:25:01;;;;;;;2.22;1.60;;;;;;;;;;5077005;28;20028;-89
2022/04/27 00:27:30;;;;;;;3.40;3.10;;;;;;;;;;5077975;28;20058;-90
2022/04/27 00:29:57;;;;;;;3.42;3.13;;;;;;;;;;5076969;28;20036;-89
2022/04/27 00:32:23;;;;;;;3.15;2.58;;;;;;;;;;5076806;28;20028;-89
2022/04/27 00:34:50;;;;;;;3.03;2.50;;;;;;;;;;5078076;28;20027;-90
2022/04/27 00:37:18;;;;;;;4.00;2.60;;;;;;;;;;5077949;28;20027;-89
2022/04/27 00:39:44;;;;;;;5.68;2.92;;;;;;;;;;5077557;28;20024;-89
2022/04/27 00:42:21;;;;;;;4.68;2.80;;;;;;;;;;5077811;28;20040;-88
2022/04/27 00:44:48;;;;;;;4.32;2.22;;;;;;;;;;5077676;28;20021;-89
2022/04/27 00:47:15;;;;;;;2.75;1.92;;;;;;;;;;5078295;28;20055;-90
2022/04/27 00:49:42;;;;;;;2.45;1.58;;;;;;;;;;5078066;28;20118;-89
2022/04/27 00:52:12;;;;;;;3.00;1.45;;;;;;;;;;5077786;28;20032;-88
2022/04/27 00:54:39;;;;;;;1.55;1.27;;;;;;;;;;5076791;28;20083;-88
2022/04/27 00:57:05;;;;;;;1.60;1.17;;;;;;;;;;5076493;28;20045;-88
2022/04/27 00:59:31;;;;;;;1.58;1.15;;;;;;;;;;5077702;28;20024;-89
2022/04/27 01:01:57;;;;;;;3.15;1.38;;;;;;;;;;5076568;28;20047;-88
2022/04/27 01:04:23;;;;;;;3.67;1.58;;;;;;;;;;5077681;28;20028;-88
2022/04/27 01:06:49;;;;;;;2.47;1.80;;;;;;;;;;5077345;28;20052;-88
2022/04/27 01:09:17;;;;;;;2.45;1.65;;;;;;;;;;5077591;28;20112;-88
2022/04/27 01:11:44;;;;;;;5.28;2.45;;;;;;;;;;5077603;28;20025;-88
2022/04/27 01:14:10;;;;;;;3.97;2.67;;;;;;;;;;5076479;28;20066;-89
2022/04/27 01:16:36;;;;;;;5.38;3.20;;;;;;;;;;5077524;28;20066;-88
2022/04/27 01:19:04;;;;;;;5.30;4.13;;;;;;;;;;5080545;28;20047;-88
2022/04/27 01:21:30;;;;;;;7.10;4.43;;;;;;;;;;5080598;28;20310;-88
2022/04/27 01:23:56;;;;;;;5.75;4.57;;;;;;;;;;5081384;28;20296;-88
2022/04/27 01:26:23;;;;;;;5.63;4.47;;;;;;;;;;5081276;28;20151;-88
2022/04/27 01:28:49;;;;;;;5.95;5.03;;;;;;;;;;5080433;28;20421;-88
2022/04/27 01:31:15;;;;;;;6.95;5.47;;;;;;;;;;5081052;28;20032;-88
2022/04/27 01:33:41;;;;;;;7.20;5.78;;;;;;;;;;5081171;28;20513;-88
2022/04/27 01:36:08;;;;;;;7.47;5.97;;;;;;;;;;5081240;28;20099;-88
2022/04/27 01:38:38;;;;;;;7.93;6.55;;;;;;;;;;5081221;28;20054;-88
2022/04/27 01:41:04;;;;;;;8.43;6.30;;;;;;;;;;5080667;28;20016;-88
2022/04/27 01:43:30;;;;;;;15.98;8.75;;;;;;;;;;5079876;28;20078;-89
2022/04/27 01:45:57;;;;;;;15.75;10.25;;;;;;;;;;5080831;28;20025;-89
2022/04/27 01:48:23;;;;;;;10.07;7.50;;;;;;;;;;5079881;28;20116;-89
2022/04/27 01:50:49;;;;;;;9.15;6.90;;;;;;;;;;5081015;28;20039;-90
2022/04/27 01:56:01;;;;;;;11.77;6.18;;;;;;;;;;5080681;28;20086;-89
2022/04/27 01:58:27;;;;;;;9.20;7.00;;;;;;;;;;5080608;28;20017;-89
2022/04/27 02:00:53;;;;;;;8.25;6.68;;;;;;;;;;5080644;28;20052;-89
2022/04/27 02:03:21;;;;;;;9.77;6.72;;;;;;;;;;5079692;28;20063;-89
2022/04/27 02:05:47;;;;;;;7.72;6.93;;;;;;;;;;5080514;28;20422;-89
2022/04/27 02:08:13;;;;;;;8.40;7.43;;;;;;;;;;5080609;28;20032;-88
2022/04/27 02:10:39;;;;;;;9.88;7.65;;;;;;;;;;5080703;28;20417;-88
2022/04/27 02:13:06;;;;;;;10.38;7.97;;;;;;;;;;5080473;28;20024;-90
2022/04/27 02:15:32;;;;;;;8.07;7.25;;;;;;;;;;5080521;28;20062;-88
2022/04/27 02:17:58;;;;;;;8.75;7.85;;;;;;;;;;5080492;28;20025;-90
2022/04/27 02:20:25;;;;;;;8.50;7.50;;;;;;;;;;5079581;28;20421;-89
2022/04/27 02:22:51;;;;;;;9.70;8.02;;;;;;;;;;5079430;28;20105;-89
2022/04/27 02:25:18;;;;;;;10.25;8.18;;;;;;;;;;5062592;28;20127;-89
2022/04/27 02:27:44;;;;;;;10.15;8.00;;;;;;;;;;5079811;28;20055;-88
2022/04/27 02:30:11;;;;;;;9.60;8.10;;;;;;;;;;5080464;28;20025;-89
2022/04/27 02:32:38;;;;;;;11.02;7.47;;;;;;;;;;5080170;28;20020;-89
2022/04/27 02:35:04;;;;;;;9.55;7.40;;;;;;;;;;5080136;28;20021;-89
2022/04/27 02:37:30;;;;;;;8.57;7.47;;;;;;;;;;5080095;28;20028;-89
2022/04/27 02:39:57;;;;;;;9.20;8.18;;;;;;;;;;5080244;28;20299;-89
2022/04/27 02:42:23;;;;;;;16.33;10.90;;;;;;;;;;5079724;28;20415;-88
2022/04/27 02:44:49;;;;;;;12.57;9.93;;;;;;;;;;5079131;28;20044;-88
2022/04/27 02:47:16;;;;;;;13.20;10.57;;;;;;;;;;5079890;28;20035;-89
2022/04/27 02:52:26;;;;;;;16.42;10.32;;;;;;;;;;5079938;28;20154;-88
2022/04/27 02:54:53;;;;;;;13.25;10.70;;;;;;;;;;5079823;28;20024;-89
2022/04/27 02:57:19;;;;;;;13.20;10.68;;;;;;;;;;5078602;28;20040;-88
2022/04/27 02:59:45;;;;;;;16.70;11.02;;;;;;;;;;5079615;28;20054;-89
2022/04/27 03:02:11;;;;;;;14.18;10.63;;;;;;;;;;5079716;28;20040;-89
2022/04/27 03:04:37;;;;;;;16.45;10.88;;;;;;;;;;5079868;28;20020;-89
2022/04/27 03:07:03;;;;;;;14.63;10.75;;;;;;;;;;5079597;28;20029;-92
2022/04/27 03:09:30;;;;;;;11.77;9.98;;;;;;;;;;5079043;28;20047;-89
2022/04/27 03:11:56;;;;;;;13.90;10.30;;;;;;;;;;5079256;28;20028;-89
2022/04/27 03:14:22;;;;;;;12.52;9.75;;;;;;;;;;5079544;28;20295;-89
2022/04/27 03:16:51;;;;;;;15.35;10.45;;;;;;;;;;5079416;28;20024;-90
2022/04/27 03:19:17;;;;;;;14.35;10.32;;;;;;;;;;5079273;28;20410;-89
2022/04/27 03:21:43;;;;;;;13.68;10.50;;;;;;;;;;5078653;28;20023;-89
2022/04/27 03:24:09;;;;;;;12.55;9.80;;;;;;;;;;5079241;28;20012;-90
2022/04/27 03:26:35;;;;;;;10.95;9.75;;;;;;;;;;5079245;28;20052;-89
2022/04/27 03:29:01;;;;;;;11.70;9.95;;;;;;;;;;5079048;28;20025;-90
2022/04/27 03:31:27;;;;;;;12.27;10.98;;;;;;;;;;5078983;28;20024;-88
2022/04/27 03:33:53;;;;;;;10.82;9.70;;;;;;;;;;5078865;28;20029;-87
2022/04/27 03:36:19;;;;;;;12.13;9.40;;;;;;;;;;5078108;28;20078;-88
2022/04/27 03:38:48;;;;;;;14.32;9.68;;;;;;;;;;5077922;28;20406;-89
2022/04/27 03:41:17;;;;;;;12.73;9.90;;;;;;;;;;5077200;28;20036;-87
2022/04/27 03:43:44;;;;;;;13.48;10.43;;;;;;;;;;5078767;28;20035;-88
2022/04/27 03:46:10;;;;;;;13.30;9.30;;;;;;;;;;5078775;28;20441;-87
2022/04/27 03:48:36;;;;;;;14.55;10.50;;;;;;;;;;5078753;28;20036;-87
2022/04/27 03:51:02;;;;;;;11.23;9.77;;;;;;;;;;5077661;28;20088;-86
2022/04/27 03:53:29;;;;;;;13.48;10.18;;;;;;;;;;5078581;28;20020;-87
2022/04/27 03:55:55;;;;;;;13.18;10.20;;;;;;;;;;5077455;28;20041;-84
2022/04/27 03:58:21;;;;;;;12.05;9.70;;;;;;;;;;5077708;28;20016;-87
2022/04/27 04:00:47;;;;;;;9.38;8.15;;;;;;;;;;5078586;28;20020;-87
2022/04/27 04:03:13;;;;;;;12.52;9.07;;;;;;;;;;5077737;28;20025;-87
2022/04/27 04:05:39;;;;;;;11.27;9.50;;;;;;;;;;5078297;28;20410;-87
2022/04/27 04:08:06;;;;;;;12.20;9.82;;;;;;;;;;5077200;28;20489;-87
2022/04/27 04:10:32;;;;;;;11.30;9.55;;;;;;;;;;5077407;28;20079;-87
2022/04/27 04:12:58;;;;;;;9.85;8.65;;;;;;;;;;5078018;28;20025;-87
2022/04/27 04:15:24;;;;;;;11.50;9.15;;;;;;;;;;5076955;28;20314;-87
2022/04/27 04:17:50;;;;;;;10.52;9.43;;;;;;;;;;5077941;28;20025;-88
2022/04/27 04:20:17;;;;;;;13.23;10.02;;;;;;;;;;5078129;28;20020;-89
2022/04/27 04:22:43;;;;;;;13.98;10.05;;;;;;;;;;5077883;28;20436;-88
2022/04/27 04:30:39;;;;;;;22.00;17.95;;;;;;;;;;5078580;28;20108;-87
2022/04/27 04:33:06;;;;;;;20.58;17.55;;;;;;;;;;5077824;28;20028;-89
2022/04/27 04:35:32;;;;;;;19.52;16.55;;;;;;;;;;5076910;28;20348;-89
2022/04/27 04:37:58;;;;;;;21.17;17.23;;;;;;;;;;5077830;28;20047;-90
2022/04/27 04:40:24;;;;;;;21.10;16.77;;;;;;;;;;5077671;28;20025;-90
2022/04/27 04:42:50;;;;;;;21.90;17.98;;;;;;;;;;5076836;28;20020;-89
2022/04/27 04:45:16;;;;;;;23.10;18.48;;;;;;;;;;5077723;28;20032;-89
2022/04/27 04:47:42;;;;;;;27.30;22.48;;;;;;;;;;5076765;28;20035;-90
2022/04/27 04:50:09;;;;;;;23.95;16.77;;;;;;;;;;5076636;28;20024;-90
2022/04/27 04:52:35;;;;;;;20.08;15.38;;;;;;;;;;5076724;28;20043;-89
2022/04/27 04:55:01;;;;;;;19.40;15.80;;;;;;;;;;5077683;28;20047;-89
2022/04/27 04:57:27;;;;;;;22.55;17.02;;;;;;;;;;5077470;28;20501;-88
2022/04/27 04:59:53;;;;;;;21.88;16.33;;;;;;;;;;5077056;28;20025;-89
2022/04/27 05:02:19;;;;;;;24.38;17.80;;;;;;;;;;5076667;28;20027;-89
2022/04/27 05:04:45;;;;;;;30.90;19.73;;;;;;;;;;5077704;28;20021;-88
2022/04/27 05:07:12;;;;;;;31.00;20.70;;;;;;;;;;5077459;28;20111;-88
2022/04/27 05:09:38;;;;;;;26.60;20.48;;;;;;;;;;5076929;28;20024;-89
2022/04/27 05:12:04;;;;;;;31.17;21.38;;;;;;;;;;5076419;28;20025;-89
2022/04/27 05:14:31;;;;;;;33.10;22.75;;;;;;;;;;5077374;28;20111;-88
2022/04/27 05:16:57;;;;;;;35.45;22.98;;;;;;;;;;5076451;28;20082;-88
2022/04/27 05:19:23;;;;;;;30.75;21.73;;;;;;;;;;5077237;28;20025;-89
2022/04/27 05:21:50;;;;;;;31.52;22.67;;;;;;;;;;5077454;28;20024;-90
2022/04/27 05:24:16;;;;;;;25.20;19.58;;;;;;;;;;5077312;28;20021;-89
2022/04/27 05:26:42;;;;;;;23.65;17.33;;;;;;;;;;5077605;28;20046;-89
2022/04/27 05:31:57;;;;;;;24.23;17.67;;;;;;;;;;5076233;28;20075;-89
2022/04/27 05:34:23;;;;;;;24.20;17.30;;;;;;;;;;5048359;28;20021;-88
2022/04/27 05:36:50;;;;;;;21.67;16.05;;;;;;;;;;5036353;28;20021;-89
2022/04/27 05:39:18;;;;;;;20.48;14.35;;;;;;;;;;5049114;28;20025;-86
2022/04/27 05:41:44;;;;;;;18.65;14.00;;;;;;;;;;5057320;28;20036;-88
2022/04/27 05:44:12;;;;;;;18.13;14.70;;;;;;;;;;5056349;28;20060;-89
2022/04/27 05:46:38;;;;;;;18.15;14.68;;;;;;;;;;5056324;28;20036;-89
2022/04/27 05:49:04;;;;;;;17.73;14.07;;;;;;;;;;5057193;28;20029;-89
2022/04/27 05:51:31;;;;;;;18.15;12.35;;;;;;;;;;5057787;28;20116;-88
2022/04/27 05:53:57;;;;;;;16.60;13.48;;;;;;;;;;5077401;28;20040;-88
2022/04/27 05:56:24;;;;;;;12.75;11.43;;;;;;;;;;5054013;28;20049;-96
2022/04/27 05:58:50;;;;;;;15.02;11.30;;;;;;;;;;5054717;28;20039;-96
2022/04/27 06:01:17;;;;;;;14.85;11.82;;;;;;;;;;5048529;28;20022;-94
2022/04/27 06:06:47;;;;;;;21.08;16.25;;;;;;;;;;5044545;28;20040;-95
2022/04/27 06:09:13;;;;;;;17.77;12.10;;;;;;;;;;5044429;28;20108;-95
2022/04/27 06:11:40;;;;;;;16.20;12.70;;;;;;;;;;5046510;28;20133;-96
2022/04/27 06:14:06;;;;;;;14.73;12.60;;;;;;;;;;5054361;28;20013;-95
2022/04/27 06:16:34;;;;;;;14.73;12.45;;;;;;;;;;5051945;28;20041;-96
2022/04/27 06:19:01;;;;;;;19.58;14.32;;;;;;;;;;5053350;28;20037;-95
2022/04/27 06:22:53;;;;;;;23.40;15.73;;;;;;;;;;5093032;28;20377;-94
2022/04/27 06:25:19;;;;;;;18.52;13.35;;;;;;;;;;5057836;28;20037;-93
2022/04/27 06:27:45;;;;;;;17.70;13.90;;;;;;;;;;5056651;28;20021;-96
2022/04/27 06:30:12;;;;;;;15.10;13.52;;;;;;;;;;5056821;28;20306;-95
2022/04/27 06:32:38;;;;;;;14.13;12.18;;;;;;;;;;5056331;28;20033;-94
2022/04/27 06:35:05;;;;;;;14.70;12.48;;;;;;;;;;5056952;28;20025;-94
2022/04/27 06:37:31;;;;;;;13.82;12.10;;;;;;;;;;5057627;28;20025;-95
2022/04/27 06:39:57;;;;;;;14.32;12.38;;;;;;;;;;5056619;28;20122;-94
2022/04/27 06:42:23;;;;;;;16.55;13.80;;;;;;;;;;5057534;28;20075;-95
2022/04/27 06:44:49;;;;;;;17.48;14.07;;;;;;;;;;5057250;28;20021;-94
2022/04/27 06:47:15;;;;;;;20.13;14.60;;;;;;;;;;5057015;28;20021;-96
2022/04/27 06:49:41;;;;;;;19.38;14.75;;;;;;;;;;5057067;28;20321;-96
2022/04/27 06:52:08;;;;;;;16.75;13.00;;;;;;;;;;5056490;28;20116;-94
2022/04/27 06:54:34;;;;;;;18.13;13.77;;;;;;;;;;5057011;28;20059;-96
2022/04/27 06:57:00;;;;;;;19.90;14.20;;;;;;;;;;5056207;28;20284;-95
2022/04/27 06:59:26;;;;;;;18.38;15.10;;;;;;;;;;5057018;28;20021;-95
2022/04/27 07:01:54;;;;;;;15.30;12.95;;;;;;;;;;5056478;28;20048;-94
2022/04/27 07:04:20;;;;;;;18.45;13.15;;;;;;;;;;5057675;28;20017;-96
2022/04/27 07:06:46;;;;;;;18.20;13.55;;;;;;;;;;5060595;28;20104;-95
2022/04/27 07:09:13;;;;;;;13.82;9.93;;;;;;;;;;5059037;28;20033;-94
2022/04/27 07:11:42;;;;;;;13.23;10.70;;;;;;;;;;5057774;28;20031;-96
2022/04/27 07:14:15;;;;;;;12.75;10.20;;;;;;;;;;5057158;28;20354;-96
2022/04/27 07:16:42;;;;;;;12.75;10.18;;;;;;;;;;5057303;28;20104;-95
2022/04/27 07:19:08;;;;;;;11.48;9.73;;;;;;;;;;5056979;28;20033;-96
2022/04/27 07:21:34;;;;;;;12.77;9.82;;;;;;;;;;5058614;28;20069;-96
2022/04/27 07:24:02;;;;;;;17.90;11.73;;;;;;;;;;5058936;28;20024;-94
2022/04/27 07:26:29;;;;;;;17.45;11.88;;;;;;;;;;5058618;28;20079;-94
2022/04/27 07:28:58;;;;;;;16.92;11.55;;;;;;;;;;5058584;28;20025;-96
2022/04/27 07:31:25;;;;;;;14.45;12.15;;;;;;;;;;5055252;28;20361;-94
2022/04/27 07:33:51;;;;;;;16.13;12.80;;;;;;;;;;5044838;28;20104;-94
2022/04/27 07:36:17;;;;;;;15.65;11.57;;;;;;;;;;5042795;28;20034;-95
2022/04/27 07:38:43;;;;;;;13.98;11.18;;;;;;;;;;5042345;28;20441;-95
2022/04/27 07:41:10;;;;;;;13.50;11.38;;;;;;;;;;5041517;28;20037;-95
2022/04/27 07:43:36;;;;;;;18.85;11.75;;;;;;;;;;5041636;28;20021;-94
2022/04/27 07:46:05;;;;;;;14.02;11.93;;;;;;;;;;5044090;28;20064;-94
2022/04/27 07:48:32;;;;;;;10.93;9.15;;;;;;;;;;5042767;28;20021;-94
2022/04/27 07:50:59;;;;;;;12.95;10.50;;;;;;;;;;5041588;28;20370;-94
2022/04/27 07:53:25;;;;;;;13.68;11.63;;;;;;;;;;5041375;28;20029;-95
2022/04/27 07:55:51;;;;;;;12.23;10.77;;;;;;;;;;5043565;28;20434;-95
2022/04/27 07:58:18;;;;;;;10.23;8.95;;;;;;;;;;5041157;28;20026;-95
2022/04/27 08:00:44;;;;;;;11.27;9.02;;;;;;;;;;5040245;28;20029;-94
2022/04/27 08:03:10;;;;;;;9.38;8.35;;;;;;;;;;5040595;28;20315;-94
2022/04/27 08:05:36;;;;;;;11.70;8.07;;;;;;;;;;5041089;28;20319;-96
2022/04/27 08:08:02;;;;;;;10.73;9.25;;;;;;;;;;5040849;28;20021;-96
2022/04/27 08:10:29;;;;;;;10.75;9.65;;;;;;;;;;5041450;28;20025;-94
2022/04/27 08:12:55;;;;;;;10.02;8.88;;;;;;;;;;5047492;28;20017;-95
2022/04/27 08:15:23;;;;;;;12.25;9.68;;;;;;;;;;5043844;28;20025;-94
2022/04/27 08:17:56;;;;;;;13.18;10.15;;;;;;;;;;5039935;28;20021;-94
2022/04/27 08:23:12;;;;;;;14.57;11.77;;;;;;;;;;5041298;28;20056;-95
2022/04/27 08:25:38;;;;;;;16.85;13.02;;;;;;;;;;5040868;28;20033;-95
2022/04/27 08:28:08;;;;;;;14.27;12.35;;;;;;;;;;5040169;28;20017;-96
2022/04/27 08:30:35;;;;;;;16.83;12.63;;;;;;;;;;5038737;28;20025;-94
2022/04/27 08:33:02;;;;;;;12.20;10.38;;;;;;;;;;5038606;28;20049;-95
2022/04/27 08:35:28;;;;;;;11.82;10.40;;;;;;;;;;5039338;28;20316;-96
2022/04/27 08:37:54;;;;;;;12.48;10.57;;;;;;;;;;5039579;28;20018;-96
2022/04/27 08:40:21;;;;;;;11.85;8.88;;;;;;;;;;5039721;28;20021;-96
2022/04/27 08:42:49;;;;;;;14.25;10.68;;;;;;;;;;5039393;28;20148;-96
2022/04/27 08:45:16;;;;;;;11.80;10.60;;;;;;;;;;5038863;28;20048;-94
2022/04/27 08:47:43;;;;;;;13.60;11.48;;;;;;;;;;5039227;28;20025;-94
2022/04/27 08:50:15;;;;;;;13.60;11.13;;;;;;;;;;5039275;28;20087;-95
2022/04/27 08:52:42;;;;;;;14.60;11.25;;;;;;;;;;5038699;28;20033;-95
2022/04/27 08:55:11;;;;;;;14.57;11.30;;;;;;;;;;5039277;28;20116;-95
2022/04/27 08:57:38;;;;;;;11.68;10.35;;;;;;;;;;5039346;28;20029;-95
2022/04/27 09:00:05;;;;;;;8.82;7.43;;;;;;;;;;5038277;28;20036;-95
2022/04/27 09:02:31;;;;;;;9.57;7.90;;;;;;;;;;5039087;28;20120;-94
2022/04/27 09:05:07;;;;;;;7.60;6.80;;;;;;;;;;5038991;28;20021;-96
2022/04/27 09:07:38;;;;;;;10.32;7.72;;;;;;;;;;5038350;28;20021;-95
2022/04/27 09:10:05;;;;;;;7.55;6.70;;;;;;;;;;5039109;28;20104;-96
2022/04/27 09:12:31;;;;;;;9.38;7.53;;;;;;;;;;5038641;28;20125;-96
2022/04/27 09:15:05;;;;;;;9.23;7.63;;;;;;;;;;5039254;28;20025;-95
2022/04/27 09:23:22;;;;;;;10.48;8.55;;;;;;;;;;5039295;28;20052;-95
2022/04/27 09:25:49;;;;;;;14.13;10.23;;;;;;;;;;5038679;28;20041;-95
2022/04/27 09:28:15;;;;;;;10.65;8.98;;;;;;;;;;5038549;28;20017;-95
2022/04/27 09:30:43;;;;;;;11.15;9.23;;;;;;;;;;5038557;28;20147;-95
2022/04/27 09:33:09;;;;;;;11.27;9.80;;;;;;;;;;5038795;28;20013;-96
2022/04/27 09:35:37;;;;;;;11.55;9.95;;;;;;;;;;5037811;28;20017;-94
2022/04/27 09:38:17;;;;;;;12.05;10.85;;;;;;;;;;5037715;28;20033;-94
2022/04/27 09:40:44;;;;;;;10.50;8.98;;;;;;;;;;5038566;28;20418;-95
2022/04/27 09:43:13;;;;;;;9.73;8.73;;;;;;;;;;5038643;28;20348;-94
2022/04/27 09:45:40;;;;;;;9.90;8.38;;;;;;;;;;5038680;28;20026;-94
2022/04/27 09:48:07;;;;;;;10.82;9.68;;;;;;;;;;5038760;28;20319;-96
2022/04/27 09:50:59;;;;;;;13.75;11.10;;;;;;;;;;5038324;28;20482;-95
2022/04/27 09:53:25;;;;;;;;;;;;;;;;;;5038838;28;20034;-96
2022/04/27 09:55:53;;;;;;;12.50;8.48;;;;;;;;;;5038165;28;19905;-95
2022/04/27 09:58:19;;;;;;;11.45;9.50;;;;;;;;;;5038414;28;20056;-95
2022/04/27 10:00:47;;;;;;;12.82;10.60;;;;;;;;;;5038322;28;20025;-96
2022/04/27 10:03:14;;;;;;;15.65;11.50;;;;;;;;;;5043165;28;20021;-95
2022/04/27 10:05:41;;;;;;;9.15;7.38;;;;;;;;;;5041854;28;20378;-95
2022/04/27 10:08:08;;;;;;;10.38;9.02;;;;;;;;;;5038772;28;20018;-96
2022/04/27 10:10:35;;;;;;;12.50;9.95;;;;;;;;;;5038096;28;20018;-95
2022/04/27 10:13:02;;;;;;;12.32;11.07;;;;;;;;;;5038330;28;20025;-95
2022/04/27 10:15:30;;;;;;;7.72;7.03;;;;;;;;;;5039720;28;20414;-96
2022/04/27 10:17:56;;;;;;;11.50;8.30;;;;;;;;;;5038625;28;20422;-94
2022/04/27 10:20:29;;;;;;;9.15;8.25;;;;;;;;;;5037716;28;20025;-95
2022/04/27 10:23:33;;;;;;;11.82;9.68;;;;;;;;;;5038145;28;20120;-95
2022/04/27 10:26:08;;;;;;;11.60;10.43;;;;;;;;;;5056474;28;20124;-95
2022/04/27 10:28:38;;;;;;;15.55;12.30;;;;;;;;;;5056800;28;20032;-95
2022/04/27 10:31:07;;;;;;;11.27;10.10;;;;;;;;;;5039429;28;20025;-95
2022/04/27 10:33:42;;;;;;;12.38;9.57;;;;;;;;;;5055982;28;20017;-95
2022/04/27 10:36:37;;;;;;;11.88;10.68;;;;;;;;;;5040109;28;20025;-95
2022/04/27 10:39:12;;;;;;;12.98;11.57;;;;;;;;;;5039360;28;20045;-94
2022/04/27 10:42:01;;;;;;;12.43;11.18;;;;;;;;;;5039687;28;20037;-94
2022/04/27 10:45:06;;;;;;;10.90;9.63;;;;;;;;;;5053897;28;20024;-94
2022/04/27 10:47:35;;;;;;;12.43;10.20;;;;;;;;;;5016597;28;20447;-94
2022/04/27 10:50:20;;;;;;;11.98;9.32;;;;;;;;;;5016190;28;20014;-94
2022/04/27 10:52:55;;;;;;;10.68;9.50;;;;;;;;;;5016662;28;20038;-94
2022/04/27 10:55:40;;;;;;;10.52;9.40;;;;;;;;;;5016030;28;20057;-95
2022/04/27 10:58:16;;;;;;;11.57;9.30;;;;;;;;;;5016573;28;20516;-95
2022/04/27 11:01:01;;;;;;;10.45;8.48;;;;;;;;;;5016703;28;20037;-95
2022/04/27 11:03:28;;;;;;;9.00;8.07;;;;;;;;;;5017712;28;20022;-96
2022/04/27 11:05:57;;;;;;;13.23;8.63;;;;;;;;;;5017355;28;20074;-96
2022/04/27 11:08:32;;;;;;;11.48;9.75;;;;;;;;;;5018750;28;20026;-96
2022/04/27 11:11:01;;;;;;;12.32;10.63;;;;;;;;;;5019776;28;20062;-96
2022/04/27 11:13:31;;;;;;;12.48;10.73;;;;;;;;;;5019827;28;20419;-96
2022/04/27 11:16:11;;;;;;;13.95;11.40;;;;;;;;;;4982275;28;20034;-95
2022/04/27 11:18:52;;;;;;;11.82;10.63;;;;;;;;;;5000712;28;20049;-95
2022/04/27 11:21:22;;;;;;;12.38;11.00;;;;;;;;;;5001129;28;20133;-94
2022/04/27 11:23:48;;;;;;;13.38;11.60;;;;;;;;;;5000868;28;20046;-94
2022/04/27 11:26:15;;;;;;;12.25;11.05;;;;;;;;;;5016106;28;20412;-95
2022/04/27 11:28:46;;;;;;;14.68;10.93;;;;;;;;;;5020095;28;20120;-94
2022/04/27 11:31:13;;;;;;;13.75;12.35;;;;;;;;;;5028187;28;20029;-94
2022/04/27 11:33:40;;;;;;;14.85;13.30;;;;;;;;;;5024802;28;20092;-94
2022/04/27 11:36:26;;;;;;;16.60;13.57;;;;;;;;;;5022078;28;20108;-94
2022/04/27 11:38:53;;;;;;;13.52;11.52;;;;;;;;;;5002615;28;20026;-95
2022/04/27 11:41:20;;;;;;;14.63;12.93;;;;;;;;;;5033636;28;20293;-90
2022/04/27 11:43:46;;;;;;;16.98;14.48;;;;;;;;;;5008571;28;20114;-96
2022/04/27 11:46:13;;;;;;;16.38;14.52;;;;;;;;;;5019602;28;20049;-95
2022/04/27 11:48:39;;;;;;;15.50;13.77;;;;;;;;;;5020900;28;20017;-94
2022/04/27 11:51:06;;;;;;;17.23;14.48;;;;;;;;;;5019840;28;20042;-94
2022/04/27 11:54:02;;;;;;;14.40;12.02;;;;;;;;;;5022367;28;20030;-96
2022/04/27 11:56:35;;;;;;;14.50;10.82;;;;;;;;;;5040283;28;20120;-94
2022/04/27 11:59:07;;;;;;;16.25;12.18;;;;;;;;;;5024923;28;20076;-94
2022/04/27 12:01:34;;;;;;;15.35;10.55;;;;;;;;;;5041413;28;20475;-95
2022/04/27 12:04:01;;;;;;;10.45;8.40;;;;;;;;;;5025334;28;20051;-95
2022/04/27 12:06:28;;;;;;;10.15;7.70;;;;;;;;;;5024881;28;20439;-94
2022/04/27 12:09:00;;;;;;;7.97;5.75;;;;;;;;;;5040823;28;20022;-96
2022/04/27 12:11:26;;;;;;;7.10;5.70;;;;;;;;;;5023752;28;20160;-95
2022/04/27 12:13:54;;;;;;;7.75;5.53;;;;;;;;;;5040267;28;20046;-94
2022/04/27 12:16:20;;;;;;;8.63;5.53;;;;;;;;;;5040492;28;20025;-95
2022/04/27 12:18:53;;;;;;;8.07;5.05;;;;;;;;;;5040413;28;20442;-94
2022/04/27 12:21:20;;;;;;;5.32;4.35;;;;;;;;;;5039886;28;20060;-95
2022/04/27 12:23:46;;;;;;;6.75;4.50;;;;;;;;;;5040450;28;20429;-95
2022/04/27 12:26:12;;;;;;;6.72;5.47;;;;;;;;;;5040037;28;20696;-94
2022/04/27 12:28:49;;;;;;;8.48;6.25;;;;;;;;;;5022989;28;20132;-94
2022/04/27 12:31:16;;;;;;;8.85;6.40;;;;;;;;;;5039194;28;20022;-95
2022/04/27 12:33:47;;;;;;;7.05;6.35;;;;;;;;;;5020388;28;20034;-95
2022/04/27 12:39:03;;;;;;;8.68;6.00;;;;;;;;;;5027269;28;20072;-96
2022/04/27 12:41:47;;;;;;;8.15;5.82;;;;;;;;;;5022124;28;20025;-95
2022/04/27 12:44:14;;;;;;;9.32;6.85;;;;;;;;;;5019397;28;20026;-95
2022/04/27 12:46:59;;;;;;;8.57;6.30;;;;;;;;;;5019693;28;20029;-95
2022/04/27 12:49:29;;;;;;;10.07;8.20;;;;;;;;;;5019330;28;20029;-96
2022/04/27 12:51:57;;;;;;;9.80;8.10;;;;;;;;;;5019519;28;20044;-96
2022/04/27 12:54:33;;;;;;;10.10;7.53;;;;;;;;;;5019439;28;20057;-95
2022/04/27 12:57:00;;;;;;;7.57;5.75;;;;;;;;;;5018261;28;20022;-94
2022/04/27 12:59:26;;;;;;;9.68;6.72;;;;;;;;;;5017791;28;20081;-95
2022/04/27 13:02:04;;;;;;;9.20;7.35;;;;;;;;;;5019019;28;20026;-96
2022/04/27 13:04:31;;;;;;;12.85;10.50;;;;;;;;;;5018087;28;20060;-94
2022/04/27 13:06:58;;;;;;;10.43;9.27;;;;;;;;;;5018979;28;20040;-95
2022/04/27 13:12:09;;;;;;;10.10;9.10;;;;;;;;;;5019186;28;20056;-95
2022/04/27 13:14:35;;;;;;;11.45;9.10;;;;;;;;;;5019040;28;20026;-95
2022/04/27 13:17:01;;;;;;;12.45;9.77;;;;;;;;;;5017892;28;20034;-96
2022/04/27 13:19:27;;;;;;;11.70;9.50;;;;;;;;;;5018786;28;20029;-95
2022/04/27 13:21:53;;;;;;;12.43;9.73;;;;;;;;;;5018612;28;20050;-95
2022/04/27 13:24:19;;;;;;;10.85;8.65;;;;;;;;;;5018905;28;20459;-96
2022/04/27 13:26:46;;;;;;;11.95;8.55;;;;;;;;;;5018748;28;20114;-96
2022/04/27 13:29:12;;;;;;;10.88;7.68;;;;;;;;;;5018636;28;20026;-95
2022/04/27 13:31:39;;;;;;;10.38;8.70;;;;;;;;;;5018067;28;20041;-96
2022/04/27 13:34:05;;;;;;;13.15;8.55;;;;;;;;;;5017674;28;20121;-94
2022/04/27 13:36:31;;;;;;;12.95;9.15;;;;;;;;;;5017540;28;20360;-95
2022/04/27 13:38:57;;;;;;;9.75;8.45;;;;;;;;;;5018575;28;20034;-95
2022/04/27 13:41:23;;;;;;;10.75;9.07;;;;;;;;;;5017373;28;20108;-96
2022/04/27 13:43:51;;;;;;;9.68;8.23;;;;;;;;;;5018874;28;20018;-95
2022/04/27 13:46:17;;;;;;;10.40;9.10;;;;;;;;;;5018472;28;20424;-95
2022/04/27 13:48:44;;;;;;;12.43;9.90;;;;;;;;;;5018682;28;20111;-95
2022/04/27 13:51:16;;;;;;;13.18;10.65;;;;;;;;;;5018232;28;20048;-94
2022/04/27 13:53:41;;;;;;;;;;;;;;;;;;5018663;28;20026;-95
2022/04/27 13:56:07;;;;;;;10.90;8.85;;;;;;;;;;5050471;28;19916;-96
2022/04/27 13:58:35;;;;;;;13.30;10.70;;;;;;;;;;5017374;28;20064;-95
2022/04/27 14:01:01;;;;;;;10.27;9.07;;;;;;;;;;5018258;28;20045;-95
2022/04/27 14:03:28;;;;;;;14.02;10.48;;;;;;;;;;5017773;28;20038;-95
2022/04/27 14:05:54;;;;;;;17.33;12.25;;;;;;;;;;5018296;28;20096;-96
2022/04/27 14:08:20;;;;;;;19.38;11.45;;;;;;;;;;5018176;28;20418;-95
2022/04/27 14:10:46;;;;;;;15.07;10.95;;;;;;;;;;5018228;28;20029;-95
2022/04/27 14:13:16;;;;;;;13.77;12.18;;;;;;;;;;5017948;28;20025;-96
2022/04/27 14:18:09;;;;;;;21.02;14.85;;;;;;;;;;5017262;28;20054;-95
2022/04/27 14:18:29;;;;;;;20.00;14.68;;;;;;;;;;5017957;28;20347;-95
2022/04/27 14:20:55;;;;;;;16.95;15.15;;;;;;;;;;5017934;28;20060;-94
2022/04/27 14:23:22;;;;;;;20.98;14.77;;;;;;;;;;5017812;28;20097;-95
2022/04/27 14:25:49;;;;;;;19.08;15.43;;;;;;;;;;5017279;28;20116;-93
2022/04/27 14:28:15;;;;;;;17.83;14.70;;;;;;;;;;5017878;28;20085;-94
2022/04/27 14:30:42;;;;;;;16.42;14.73;;;;;;;;;;5016878;28;20049;-95
2022/04/27 14:33:08;;;;;;;16.15;14.30;;;;;;;;;;5017809;28;20403;-95
2022/04/27 14:35:36;;;;;;;15.90;14.20;;;;;;;;;;5017884;28;20026;-95
2022/04/27 14:38:03;;;;;;;16.65;14.38;;;;;;;;;;5016803;28;20028;-94
2022/04/27 14:40:29;;;;;;;18.92;14.35;;;;;;;;;;5017888;28;20032;-96
2022/04/27 14:42:55;;;;;;;17.65;14.70;;;;;;;;;;5018549;28;20057;-94
2022/04/27 14:45:21;;;;;;;18.00;14.55;;;;;;;;;;5020783;28;20117;-94
2022/04/27 14:47:47;;;;;;;17.02;15.18;;;;;;;;;;5021920;28;20021;-95
2022/04/27 14:50:14;;;;;;;17.77;15.43;;;;;;;;;;5021915;28;20022;-96
2022/04/27 14:52:40;;;;;;;17.45;15.43;;;;;;;;;;5021623;28;20332;-93
2022/04/27 14:55:07;;;;;;;21.10;15.90;;;;;;;;;;5022330;28;20105;-95
2022/04/27 14:57:33;;;;;;;19.13;16.65;;;;;;;;;;5022002;28;20474;-95
2022/04/27 15:00:00;;;;;;;19.65;17.60;;;;;;;;;;5021673;28;20034;-95
2022/04/27 15:02:26;;;;;;;20.58;18.48;;;;;;;;;;5021677;28;20068;-94
2022/04/27 15:04:54;;;;;;;21.73;19.52;;;;;;;;;;5020795;28;20018;-94